Bluff City, Tennessee
Current Conditions -  °F | °C
As of 7:53 AM on Friday 19 Dec 2014 (Local Time) from KTRI Reporting Station
Overcast Overcast  
Wind Chill: 37°   Ceiling: 5000
Heat Index: 37°   Visibility: 10mi
Dew Point: 24°   Wind: 0mph
Humidity: 59%   Direction: NA
Pressure: 30.19"   Gusts: NA
Location:  36.47°N, 82.26°W
Report Text: KTRI 191253Z 00000KT 10SM OVC050 03/M04 A3019 RMK AO2 SLP221 T00281044
Loading
Personal Weather Stations






























Interactive Weather Map New forecast layout! Learn more

10-Day Weather Forecast

Advertisements
Track Severe Weather on mobile